Time;durP1;ratioP1;P1;durP2;ratioP2;P2;SDS_P1;SDS_P2;PMS_P1;PMS_P2;Temp;Humidity;BMP_temperature;BMP_pressure;BME280_temperature;BME280_humidity;BME280_pressure;Samples;Min_cycle;Max_cycle;Signal;HPM_P1;HPM_P2
2024/04/18 00:01:59;;;;;;;1.77;1.10;;;9.10;1.00;;;;;;5226270;22;20779;-88
2024/04/18 00:04:17;;;;;;;1.60;1.27;;;9.10;1.00;;;;;;5156966;22;20270;-88
2024/04/18 00:06:34;;;;;;;3.23;1.50;;;9.00;1.00;;;;;;5228063;22;20296;-88
2024/04/18 00:08:52;;;;;;;2.43;1.10;;;8.90;1.00;;;;;;5191718;22;20781;-89
2024/04/18 00:11:09;;;;;;;2.20;1.03;;;8.80;1.00;;;;;;5228447;22;20341;-88
2024/04/18 00:13:26;;;;;;;2.43;1.00;;;8.90;1.00;;;;;;5191416;22;20334;-89
2024/04/18 00:15:44;;;;;;;4.00;1.23;;;8.90;1.00;;;;;;5191393;22;20319;-89
2024/04/18 00:18:01;;;;;;;1.93;1.07;;;9.00;1.00;;;;;;5191240;22;20361;-88
2024/04/18 00:20:19;;;;;;;1.93;1.10;;;9.00;1.00;;;;;;5227970;22;20274;-88
2024/04/18 00:22:36;;;;;;;2.50;1.10;;;9.00;1.00;;;;;;5190667;22;20263;-88
2024/04/18 00:24:54;;;;;;;1.73;1.30;;;8.90;1.00;;;;;;5155798;22;20335;-88
2024/04/18 00:27:12;;;;;;;1.97;1.10;;;8.70;1.00;;;;;;5190146;22;20318;-87
2024/04/18 00:29:30;;;;;;;1.87;1.00;;;8.60;1.00;;;;;;5190621;22;20809;-89
2024/04/18 00:31:47;;;;;;;2.70;1.20;;;8.60;1.00;;;;;;5191100;22;20271;-89
2024/04/18 00:34:04;;;;;;;1.90;1.20;;;8.60;1.00;;;;;;5189455;22;20594;-88
2024/04/18 00:36:22;;;;;;;1.63;1.10;;;8.70;1.00;;;;;;5191015;22;20394;-87
2024/04/18 00:38:39;;;;;;;1.93;1.03;;;8.70;1.00;;;;;;5190592;22;20280;-88
2024/04/18 00:40:56;;;;;;;1.53;0.90;;;8.80;1.00;;;;;;5227578;22;20312;-88
2024/04/18 00:43:14;;;;;;;1.57;1.03;;;8.90;1.00;;;;;;5155812;22;20338;-88
2024/04/18 00:45:32;;;;;;;1.87;1.17;;;8.90;1.00;;;;;;5155720;22;20333;-88
2024/04/18 00:47:49;;;;;;;0.87;0.80;;;8.90;1.00;;;;;;5190227;22;20269;-89
2024/04/18 00:50:08;;;;;;;1.43;0.90;;;8.90;1.00;;;;;;5155100;22;20336;-88
2024/04/18 00:52:28;;;;;;;3.27;1.20;;;8.90;1.00;;;;;;5188104;22;20733;-87
2024/04/18 00:54:48;;;;;;;0.57;0.57;;;8.80;1.00;;;;;;5155579;22;20347;-88
2024/04/18 00:57:05;;;;;;;1.23;0.90;;;8.80;1.00;;;;;;5154680;22;20276;-88
2024/04/18 00:59:23;;;;;;;1.60;1.00;;;8.80;1.00;;;;;;5189601;22;20336;-89
2024/04/18 01:01:44;;;;;;;3.53;1.10;;;8.70;1.00;;;;;;5188541;22;20274;-89
2024/04/18 01:04:01;;;;;;;2.20;1.07;;;8.70;1.00;;;;;;5190603;22;20255;-88
2024/04/18 01:06:18;;;;;;;1.73;1.10;;;8.80;1.00;;;;;;5154055;22;20308;-87
2024/04/18 01:08:39;;;;;;;4.20;1.20;;;8.50;1.00;;;;;;5190175;22;20268;-88
2024/04/18 01:10:57;;;;;;;1.70;1.00;;;8.40;1.00;;;;;;5226600;22;20814;-88
2024/04/18 01:13:14;;;;;;;2.20;1.53;;;8.40;1.00;;;;;;5189846;22;20666;-88
2024/04/18 01:15:31;;;;;;;2.70;1.40;;;8.40;1.00;;;;;;5190515;22;20275;-88
2024/04/18 01:17:49;;;;;;;1.83;1.30;;;8.50;1.00;;;;;;5190629;22;20264;-88
2024/04/18 01:20:07;;;;;;;1.83;1.10;;;8.80;1.00;;;;;;5190111;22;20725;-88
2024/04/18 01:22:24;;;;;;;7.57;2.27;;;8.60;1.00;;;;;;5227049;22;20947;-89
2024/04/18 01:24:42;;;;;;;5.33;1.90;;;8.60;1.00;;;;;;5227576;22;20346;-89
2024/04/18 01:27:00;;;;;;;2.50;1.70;;;8.60;1.00;;;;;;5190868;22;20676;-88
2024/04/18 01:29:18;;;;;;;3.23;1.70;;;8.50;1.00;;;;;;5157038;22;20280;-88
2024/04/18 01:31:36;;;;;;;3.40;2.20;;;8.60;1.00;;;;;;5227515;22;20276;-89
2024/04/18 01:33:57;;;;;;;2.93;1.80;;;8.50;1.00;;;;;;5227374;22;20296;-88
2024/04/18 01:36:15;;;;;;;2.53;1.70;;;8.50;1.00;;;;;;5227424;22;20557;-88
2024/04/18 01:38:33;;;;;;;11.30;2.37;;;8.50;1.00;;;;;;5190812;22;20273;-88
2024/04/18 01:40:50;;;;;;;3.87;2.17;;;8.60;1.00;;;;;;5156142;22;20275;-88
2024/04/18 01:43:08;;;;;;;2.23;1.53;;;8.60;1.00;;;;;;5190353;22;20664;-88
2024/04/18 01:45:26;;;;;;;4.70;2.10;;;8.60;1.00;;;;;;5191566;22;20590;-91
2024/04/18 01:47:43;;;;;;;3.33;2.03;;;8.60;1.00;;;;;;5228072;22;20296;-88
2024/04/18 01:50:00;;;;;;;4.17;2.60;;;8.60;1.00;;;;;;5190783;22;20267;-88
2024/04/18 01:52:17;;;;;;;5.67;3.13;;;8.70;1.00;;;;;;5191384;22;20340;-88
2024/04/18 01:54:34;;;;;;;6.77;3.87;;;8.70;1.00;;;;;;5190478;22;20309;-89
2024/04/18 01:56:53;;;;;;;4.60;3.00;;;8.80;1.00;;;;;;5191077;22;20293;-88
2024/04/18 01:59:11;;;;;;;5.43;3.30;;;8.80;1.00;;;;;;5190651;22;20357;-88
2024/04/18 02:01:29;;;;;;;7.23;4.47;;;8.80;1.00;;;;;;5190251;22;20340;-88
2024/04/18 02:03:46;;;;;;;8.90;3.70;;;8.80;1.00;;;;;;5191155;22;20305;-88
2024/04/18 02:06:04;;;;;;;7.03;3.90;;;8.80;1.00;;;;;;5156788;22;20281;-88
2024/04/18 02:08:21;;;;;;;7.13;4.37;;;8.70;1.00;;;;;;5192059;22;20796;-88
2024/04/18 02:10:38;;;;;;;7.17;3.73;;;8.70;1.00;;;;;;5191501;22;20277;-89
2024/04/18 02:12:56;;;;;;;8.50;4.83;;;8.50;1.00;;;;;;5191110;22;20344;-88
2024/04/18 02:15:15;;;;;;;8.77;5.10;;;8.40;1.00;;;;;;5191402;22;20280;-88
2024/04/18 02:17:33;;;;;;;7.53;4.87;;;8.30;1.00;;;;;;5192029;22;20267;-89
2024/04/18 02:19:50;;;;;;;7.60;4.73;;;8.20;1.00;;;;;;5191825;22;20268;-88
2024/04/18 02:22:09;;;;;;;8.33;4.93;;;8.10;1.00;;;;;;5157587;22;20273;-89
2024/04/18 02:24:26;;;;;;;13.20;5.67;;;8.00;1.00;;;;;;5191788;22;20654;-88
2024/04/18 02:26:44;;;;;;;8.23;5.17;;;8.00;1.00;;;;;;5191844;22;20344;-88
2024/04/18 02:29:03;;;;;;;10.40;6.77;;;7.90;1.00;;;;;;5228719;22;20274;-89
2024/04/18 02:31:21;;;;;;;8.67;5.83;;;7.90;1.00;;;;;;5229131;22;20270;-88
2024/04/18 02:33:38;;;;;;;8.57;5.57;;;7.80;1.00;;;;;;5191959;22;20321;-89
2024/04/18 02:35:56;;;;;;;9.77;5.87;;;7.60;1.00;;;;;;5156902;22;20272;-88
2024/04/18 02:38:13;;;;;;;9.00;5.30;;;7.80;1.00;;;;;;5157203;22;20277;-90
2024/04/18 02:40:31;;;;;;;9.87;5.27;;;7.70;1.00;;;;;;5156818;22;20270;-88
2024/04/18 02:42:48;;;;;;;9.40;5.30;;;7.80;1.00;;;;;;5191021;22;20288;-88
2024/04/18 02:45:05;;;;;;;11.93;5.60;;;7.80;1.00;;;;;;5191033;22;20252;-89
2024/04/18 02:47:22;;;;;;;11.30;6.53;;;7.80;1.00;;;;;;5192045;22;20292;-88
2024/04/18 02:49:40;;;;;;;10.67;5.77;;;7.90;1.00;;;;;;5192527;22;20306;-88
2024/04/18 02:51:57;;;;;;;9.33;5.37;;;8.00;1.00;;;;;;5191654;22;20260;-88
2024/04/18 02:54:15;;;;;;;9.33;5.17;;;8.10;1.00;;;;;;5156796;22;20342;-88
2024/04/18 02:56:32;;;;;;;14.03;5.30;;;8.20;1.00;;;;;;5192021;22;20279;-88
2024/04/18 02:58:50;;;;;;;10.57;5.57;;;8.20;1.00;;;;;;5157545;22;20273;-88
2024/04/18 03:01:07;;;;;;;11.03;6.13;;;8.10;1.00;;;;;;5228322;22;20311;-88
2024/04/18 03:03:25;;;;;;;9.70;5.87;;;8.00;1.00;;;;;;5191623;22;20229;-88
2024/04/18 03:05:43;;;;;;;9.30;5.70;;;8.00;1.00;;;;;;5227357;22;20273;-88
2024/04/18 03:08:00;;;;;;;9.37;5.50;;;7.80;1.00;;;;;;5191621;22;20277;-88
2024/04/18 03:10:18;;;;;;;8.50;5.57;;;7.70;1.00;;;;;;5228800;22;20304;-88
2024/04/18 03:12:35;;;;;;;7.23;5.13;;;7.60;1.00;;;;;;5192615;22;20281;-89
2024/04/18 03:14:53;;;;;;;7.57;5.03;;;7.50;1.00;;;;;;5191785;22;20309;-88
2024/04/18 03:17:11;;;;;;;11.40;5.70;;;7.40;1.00;;;;;;5191250;22;20305;-88
2024/04/18 03:19:28;;;;;;;9.97;5.50;;;7.40;1.00;;;;;;5191603;22;20293;-88
2024/04/18 03:21:46;;;;;;;8.67;5.53;;;7.50;1.00;;;;;;5191964;22;20271;-88
2024/04/18 03:24:16;;;;;;;15.77;5.97;;;7.50;1.00;;;;;;5191799;22;20276;-89
2024/04/18 03:26:33;;;;;;;11.47;5.57;;;7.60;1.00;;;;;;5192704;22;20271;-88
2024/04/18 03:28:51;;;;;;;6.83;5.10;;;7.70;1.00;;;;;;5192115;22;20331;-89
2024/04/18 03:31:08;;;;;;;8.80;5.87;;;7.80;1.00;;;;;;5157401;22;20575;-89
2024/04/18 03:33:26;;;;;;;10.40;5.17;;;7.70;1.00;;;;;;5157315;22;20338;-88
2024/04/18 03:35:43;;;;;;;7.40;5.27;;;7.60;1.00;;;;;;5191915;22;20293;-88
2024/04/18 03:38:02;;;;;;;7.13;4.57;;;7.60;1.00;;;;;;5191733;22;20271;-88
2024/04/18 03:40:19;;;;;;;10.77;5.03;;;7.70;1.00;;;;;;5191765;22;20332;-88
2024/04/18 03:42:37;;;;;;;9.33;5.00;;;7.70;1.00;;;;;;5191643;22;20279;-88
2024/04/18 03:44:54;;;;;;;10.97;5.43;;;7.60;1.00;;;;;;5227565;22;20272;-88
2024/04/18 03:47:11;;;;;;;10.33;5.57;;;7.60;1.00;;;;;;5123070;22;20320;-89
2024/04/18 03:49:29;;;;;;;12.77;5.50;;;7.70;1.00;;;;;;5191735;22;20347;-88
2024/04/18 03:51:46;;;;;;;11.53;5.60;;;7.70;1.00;;;;;;5228182;22;20331;-88
2024/04/18 03:54:04;;;;;;;8.00;4.90;;;7.80;1.00;;;;;;5157146;22;20350;-89
2024/04/18 03:56:23;;;;;;;8.37;5.23;;;7.80;1.00;;;;;;5156875;22;20278;-88
2024/04/18 03:58:40;;;;;;;10.30;5.20;;;7.90;1.00;;;;;;5191427;22;20266;-88
2024/04/18 04:00:57;;;;;;;10.97;5.60;;;7.90;1.00;;;;;;5191171;22;20327;-88
2024/04/18 04:03:15;;;;;;;8.70;5.27;;;7.90;1.00;;;;;;5191685;22;20274;-93
2024/04/18 04:05:32;;;;;;;9.33;4.60;;;7.90;1.00;;;;;;5227705;22;20331;-88
2024/04/18 04:07:50;;;;;;;9.80;5.70;;;8.00;1.00;;;;;;5191371;22;20271;-89
2024/04/18 04:10:07;;;;;;;15.50;6.03;;;8.10;1.00;;;;;;5191427;22;20363;-88
2024/04/18 04:12:25;;;;;;;8.30;5.27;;;8.10;1.00;;;;;;5191722;22;20348;-89
2024/04/18 04:14:42;;;;;;;7.83;4.90;;;8.20;1.00;;;;;;5156616;22;20318;-88
2024/04/18 04:17:01;;;;;;;15.97;6.03;;;8.20;1.00;;;;;;5227845;22;20266;-88
2024/04/18 04:19:18;;;;;;;9.53;5.30;;;8.20;1.00;;;;;;5191789;22;20264;-88
2024/04/18 04:21:35;;;;;;;7.90;5.37;;;8.20;1.00;;;;;;5228385;22;20280;-89
2024/04/18 04:23:55;;;;;;;7.67;4.73;;;8.30;1.00;;;;;;5192009;22;20360;-88
2024/04/18 04:26:13;;;;;;;9.17;5.70;;;8.30;1.00;;;;;;5228306;22;20277;-87
2024/04/18 04:28:31;;;;;;;7.77;5.20;;;8.20;1.00;;;;;;5191809;22;20268;-88
2024/04/18 04:30:49;;;;;;;8.43;4.87;;;8.10;1.00;;;;;;5156281;22;20802;-88
2024/04/18 04:33:06;;;;;;;10.77;5.50;;;8.10;1.00;;;;;;5190142;22;20275;-88
2024/04/18 04:35:24;;;;;;;10.43;5.80;;;8.10;1.00;;;;;;5226180;22;20326;-88
2024/04/18 04:37:41;;;;;;;9.23;5.67;;;8.10;1.00;;;;;;5155650;22;20346;-88
2024/04/18 04:39:58;;;;;;;9.63;5.23;;;8.10;1.00;;;;;;5227986;22;20303;-88
2024/04/18 04:42:15;;;;;;;11.13;6.10;;;8.10;1.00;;;;;;5191384;22;20314;-88
2024/04/18 04:44:33;;;;;;;7.27;4.90;;;8.10;1.00;;;;;;5190460;22;20301;-88
2024/04/18 04:46:51;;;;;;;12.03;5.07;;;8.10;1.00;;;;;;5191370;22;20305;-88
2024/04/18 04:49:08;;;;;;;10.50;5.13;;;8.10;1.00;;;;;;5228083;22;20228;-89
2024/04/18 04:51:26;;;;;;;9.33;6.20;;;8.10;1.00;;;;;;5190942;22;20335;-88
2024/04/18 04:53:43;;;;;;;13.00;5.47;;;8.10;1.00;;;;;;5191016;22;20316;-88
2024/04/18 04:56:01;;;;;;;9.83;5.93;;;8.10;1.00;;;;;;5190150;22;20831;-87
2024/04/18 04:58:19;;;;;;;8.97;5.50;;;8.20;1.00;;;;;;5156434;22;20506;-88
2024/04/18 05:00:36;;;;;;;12.80;6.07;;;8.20;1.00;;;;;;5156270;22;20222;-89
2024/04/18 05:02:53;;;;;;;9.40;5.60;;;8.10;1.00;;;;;;5190410;22;20293;-87
2024/04/18 05:05:11;;;;;;;8.20;5.30;;;8.00;1.00;;;;;;5191021;22;20323;-88
2024/04/18 05:07:29;;;;;;;11.73;5.67;;;8.00;1.00;;;;;;5156255;22;20902;-87
2024/04/18 05:09:49;;;;;;;10.07;5.83;;;7.90;1.00;;;;;;5190952;22;20340;-88
2024/04/18 05:12:06;;;;;;;8.77;4.97;;;7.90;1.00;;;;;;5190133;22;20263;-88
2024/04/18 05:14:23;;;;;;;10.40;4.60;;;7.90;1.00;;;;;;5189409;22;20680;-88
2024/04/18 05:16:41;;;;;;;8.87;4.73;;;7.90;1.00;;;;;;5227400;22;20296;-88
2024/04/18 05:18:58;;;;;;;10.20;5.30;;;7.90;1.00;;;;;;5191430;22;20272;-92
2024/04/18 05:21:23;;;;;;;8.27;4.60;;;7.80;1.00;;;;;;5193401;22;20331;-89
2024/04/18 05:23:40;;;;;;;6.70;4.27;;;7.80;1.00;;;;;;5191063;22;20529;-94
2024/04/18 05:25:57;;;;;;;11.43;4.40;;;7.80;1.00;;;;;;5190246;22;20267;-94
2024/04/18 05:28:20;;;;;;;10.30;4.77;;;7.80;1.00;;;;;;5190282;22;20272;-93
2024/04/18 05:33:17;;;;;;;10.47;5.10;;;7.80;1.00;;;;;;5228154;22;20771;-96
2024/04/18 05:35:35;;;;;;;8.77;5.13;;;7.70;1.00;;;;;;5186495;22;20336;-96
2024/04/18 05:37:52;;;;;;;8.83;5.10;;;7.70;1.00;;;;;;5187379;22;20334;-96
2024/04/18 05:40:09;;;;;;;10.83;5.17;;;7.70;1.00;;;;;;5188780;22;20340;-94
2024/04/18 05:42:27;;;;;;;8.40;4.77;;;7.70;1.00;;;;;;5189007;22;20273;-96
2024/04/18 05:44:46;;;;;;;16.07;5.77;;;7.80;1.00;;;;;;5189121;22;20274;-96
2024/04/18 05:47:03;;;;;;;13.27;6.57;;;7.80;1.00;;;;;;5225553;22;20602;-96
2024/04/18 05:49:24;;;;;;;15.10;7.27;;;8.00;1.00;;;;;;5189466;22;20883;-96
2024/04/18 05:51:41;;;;;;;11.50;5.67;;;8.10;1.00;;;;;;5190474;22;20271;-96
2024/04/18 05:53:58;;;;;;;16.00;6.57;;;8.20;1.00;;;;;;5190710;22;20279;-96
2024/04/18 05:56:16;;;;;;;14.70;6.00;;;8.30;1.00;;;;;;5190824;22;20362;-95
2024/04/18 05:58:33;;;;;;;14.83;6.30;;;8.40;1.00;;;;;;5155734;22;20284;-96
2024/04/18 06:00:51;;;;;;;8.70;5.33;;;8.40;1.00;;;;;;5190145;22;20293;-96
2024/04/18 06:03:08;;;;;;;10.13;5.43;;;8.50;1.00;;;;;;5191182;22;20280;-96
2024/04/18 06:05:26;;;;;;;13.20;5.07;;;8.60;1.00;;;;;;5190951;22;20271;-96
2024/04/18 06:07:43;;;;;;;10.37;5.03;;;8.60;1.00;;;;;;5191054;22;20336;-96
2024/04/18 06:10:02;;;;;;;8.73;4.60;;;8.50;1.00;;;;;;5227403;22;20326;-96
2024/04/18 06:12:19;;;;;;;10.60;4.73;;;8.60;1.00;;;;;;5156490;22;20282;-96
2024/04/18 06:14:41;;;;;;;8.57;4.37;;;8.60;1.00;;;;;;5190635;22;20274;-96
2024/04/18 06:16:58;;;;;;;9.00;4.73;;;8.60;1.00;;;;;;5192102;22;20340;-93
2024/04/18 06:19:16;;;;;;;11.23;4.77;;;8.70;1.00;;;;;;5192773;22;20361;-93
2024/04/18 06:21:33;;;;;;;9.60;4.93;;;8.70;1.00;;;;;;5228295;22;20288;-94
2024/04/18 06:23:51;;;;;;;11.70;5.07;;;8.70;1.00;;;;;;5191369;22;20275;-94
2024/04/18 06:26:08;;;;;;;13.57;5.13;;;8.70;1.00;;;;;;5191526;22;20271;-95
2024/04/18 06:28:27;;;;;;;10.93;4.70;;;8.80;1.00;;;;;;5189007;22;20269;-96
2024/04/18 06:30:46;;;;;;;10.53;4.90;;;8.70;1.00;;;;;;5191275;22;20834;-96
2024/04/18 06:33:04;;;;;;;11.83;5.03;;;8.80;1.00;;;;;;5190337;22;20323;-96
2024/04/18 06:35:22;;;;;;;13.43;5.57;;;8.80;1.00;;;;;;5190633;22;20348;-95
2024/04/18 06:37:40;;;;;;;10.57;5.07;;;8.70;1.00;;;;;;5156291;22;20257;-96
2024/04/18 06:39:58;;;;;;;10.43;5.00;;;8.80;1.00;;;;;;5190580;22;20264;-96
2024/04/18 06:42:17;;;;;;;10.53;6.10;;;8.80;1.00;;;;;;5190508;22;20267;-96
2024/04/18 06:44:35;;;;;;;8.53;5.27;;;8.90;1.00;;;;;;5190256;22;20293;-95
2024/04/18 06:46:53;;;;;;;8.07;5.83;;;8.80;1.00;;;;;;5227105;22;20288;-96
2024/04/18 06:49:10;;;;;;;13.90;5.80;;;8.80;1.00;;;;;;5155617;22;20269;-96
2024/04/18 06:51:28;;;;;;;13.13;6.70;;;8.80;1.00;;;;;;5191143;22;20275;-96
2024/04/18 06:53:45;;;;;;;11.70;5.17;;;8.90;1.00;;;;;;5227254;22;20274;-96
2024/04/18 06:56:03;;;;;;;9.00;4.47;;;9.00;1.00;;;;;;5190514;22;20271;-96
2024/04/18 06:58:20;;;;;;;7.60;4.53;;;9.00;1.00;;;;;;5226783;22;20263;-96
2024/04/18 07:00:38;;;;;;;9.10;5.00;;;9.00;1.00;;;;;;5227029;22;20266;-95
2024/04/18 07:02:56;;;;;;;9.67;5.10;;;8.90;1.00;;;;;;5190048;22;20275;-96
2024/04/18 07:05:13;;;;;;;11.43;5.47;;;8.90;1.00;;;;;;5155368;22;20745;-96
2024/04/18 07:07:32;;;;;;;10.80;6.03;;;9.00;1.00;;;;;;5225537;22;20360;-96
2024/04/18 07:09:50;;;;;;;9.87;5.63;;;9.00;1.00;;;;;;5188777;22;20327;-96
2024/04/18 07:12:17;;;;;;;11.50;5.70;;;9.00;1.00;;;;;;5189489;22;20276;-96
2024/04/18 07:14:42;;;;;;;9.20;5.53;;;9.00;1.00;;;;;;5225575;22;20695;-96
2024/04/18 07:17:07;;;;;;;12.80;6.67;;;9.10;1.00;;;;;;5189851;22;20348;-95
2024/04/18 07:19:24;;;;;;;10.10;6.17;;;9.10;1.00;;;;;;5154711;22;20227;-96
2024/04/18 07:21:42;;;;;;;13.57;5.97;;;9.00;1.00;;;;;;5189980;22;20505;-96
2024/04/18 07:23:59;;;;;;;11.70;4.90;;;9.00;1.00;;;;;;5155880;22;20278;-96
2024/04/18 07:26:17;;;;;;;11.07;5.10;;;9.00;1.00;;;;;;5189860;22;20267;-96
2024/04/18 07:28:34;;;;;;;10.23;4.07;;;9.00;1.00;;;;;;5226644;22;20271;-95
2024/04/18 07:30:52;;;;;;;11.63;4.27;;;9.20;1.00;;;;;;5155493;22;20226;-96
2024/04/18 07:33:09;;;;;;;9.70;4.33;;;9.20;1.00;;;;;;5189443;22;20320;-95
2024/04/18 07:35:27;;;;;;;10.10;4.27;;;9.30;1.00;;;;;;5188937;22;20340;-96
2024/04/18 07:37:46;;;;;;;8.67;3.87;;;9.30;1.00;;;;;;5189262;22;20331;-96
2024/04/18 07:40:18;;;;;;;8.73;3.97;;;9.50;1.00;;;;;;5225965;22;20264;-95
2024/04/18 07:42:35;;;;;;;5.63;3.93;;;9.40;1.00;;;;;;5190579;22;20745;-96
2024/04/18 07:44:53;;;;;;;7.40;3.27;;;9.30;1.00;;;;;;5190174;22;20268;-95
2024/04/18 07:47:11;;;;;;;7.23;2.73;;;9.30;1.00;;;;;;5226148;22;20274;-95
2024/04/18 07:49:29;;;;;;;6.30;2.53;;;9.10;1.00;;;;;;5155767;22;20264;-94
2024/04/18 07:51:49;;;;;;;7.50;2.80;;;9.00;1.00;;;;;;5154865;22;20272;-96
2024/04/18 07:54:07;;;;;;;6.73;3.23;;;9.00;1.00;;;;;;5189778;22;20621;-96
2024/04/18 07:56:24;;;;;;;5.43;2.50;;;9.00;1.00;;;;;;5190198;22;20267;-94
2024/04/18 07:58:42;;;;;;;4.20;2.10;;;9.20;1.00;;;;;;5189655;22;20305;-96
2024/04/18 08:01:00;;;;;;;7.47;3.17;;;9.20;1.00;;;;;;5189415;22;20570;-95
2024/04/18 08:03:17;;;;;;;8.63;4.20;;;9.30;1.00;;;;;;5189972;22;20325;-96
2024/04/18 08:05:35;;;;;;;9.97;2.70;;;9.40;1.00;;;;;;5225987;22;20587;-95
2024/04/18 08:07:55;;;;;;;10.63;3.10;;;9.30;1.00;;;;;;5189099;22;20279;-95
2024/04/18 08:10:13;;;;;;;6.97;3.03;;;9.30;1.00;;;;;;5154549;22;20274;-96
2024/04/18 08:12:30;;;;;;;14.80;4.07;;;9.40;1.00;;;;;;5189501;22;20343;-95
2024/04/18 08:14:48;;;;;;;9.63;2.87;;;9.40;1.00;;;;;;5189067;22;20349;-96
2024/04/18 08:17:05;;;;;;;8.80;2.37;;;9.40;1.00;;;;;;5189471;22;20312;-94
2024/04/18 08:19:22;;;;;;;4.87;2.27;;;9.50;1.00;;;;;;5189117;22;20593;-96
2024/04/18 08:21:40;;;;;;;8.10;2.33;;;9.60;1.00;;;;;;5189791;22;20796;-95
2024/04/18 08:24:01;;;;;;;10.03;2.97;;;9.80;1.00;;;;;;5189826;22;20275;-95
2024/04/18 08:26:19;;;;;;;6.90;2.13;;;9.80;1.00;;;;;;5189130;22;20371;-96
2024/04/18 08:28:37;;;;;;;12.57;3.30;;;9.90;1.00;;;;;;5189428;22;20341;-96
2024/04/18 08:30:54;;;;;;;7.03;2.33;;;9.90;1.00;;;;;;5226223;22;20744;-95
2024/04/18 08:33:12;;;;;;;6.53;2.57;;;10.00;1.00;;;;;;5225780;22;20267;-95
2024/04/18 08:35:29;;;;;;;4.93;2.17;;;10.10;1.00;;;;;;5189242;22;20317;-96
2024/04/18 08:37:48;;;;;;;14.03;1.93;;;10.10;1.00;;;;;;5189001;22;20325;-96
2024/04/18 08:40:06;;;;;;;5.23;2.53;;;10.00;1.00;;;;;;5189186;22;20324;-96
2024/04/18 08:42:25;;;;;;;3.03;1.57;;;10.00;1.00;;;;;;5155087;22;20332;-95
2024/04/18 08:44:44;;;;;;;10.30;2.63;;;10.10;1.00;;;;;;5189640;22;20267;-94
2024/04/18 08:47:02;;;;;;;4.87;1.37;;;10.10;1.00;;;;;;5188906;22;20297;-95
2024/04/18 08:49:20;;;;;;;3.97;1.30;;;10.00;1.00;;;;;;5189639;22;20937;-96
2024/04/18 08:51:39;;;;;;;3.47;0.97;;;10.00;1.00;;;;;;5226085;22;20275;-95
2024/04/18 08:53:57;;;;;;;1.50;0.80;;;10.10;1.00;;;;;;5155294;22;20290;-95
2024/04/18 08:56:18;;;;;;;9.37;1.13;;;10.20;1.00;;;;;;5190373;22;20344;-95
2024/04/18 08:58:36;;;;;;;4.50;1.17;;;10.20;1.00;;;;;;5189080;22;20270;-95
2024/04/18 09:00:54;;;;;;;6.40;0.93;;;10.40;1.00;;;;;;5190341;22;20966;-94
2024/04/18 09:03:12;;;;;;;12.70;2.03;;;10.40;1.00;;;;;;5189089;22;20349;-94
2024/04/18 09:05:29;;;;;;;6.33;1.37;;;10.50;1.00;;;;;;5189730;22;20270;-95
2024/04/18 09:07:47;;;;;;;7.17;1.13;;;10.50;1.00;;;;;;5189747;22;20812;-95
2024/04/18 09:10:09;;;;;;;3.97;1.65;;;10.50;1.00;;;;;;5226508;22;20224;-95
2024/04/18 09:12:26;;;;;;;4.97;1.10;;;10.50;1.00;;;;;;5188877;22;20729;-94
2024/04/18 09:14:44;;;;;;;9.53;2.90;;;10.70;1.00;;;;;;5189634;22;20358;-95
2024/04/18 09:17:01;;;;;;;7.50;1.30;;;10.80;1.00;;;;;;5189402;22;20353;-95
2024/04/18 09:19:19;;;;;;;3.30;1.03;;;10.90;1.00;;;;;;5188887;22;20301;-95
2024/04/18 09:21:37;;;;;;;6.07;2.03;;;11.00;1.00;;;;;;5189243;22;20271;-95
2024/04/18 09:23:57;;;;;;;4.17;1.03;;;11.10;1.00;;;;;;5188928;22;20401;-93
2024/04/18 09:26:14;;;;;;;6.43;1.40;;;11.20;1.00;;;;;;5189488;22;20471;-95
2024/04/18 09:28:38;;;;;;;2.47;1.13;;;11.20;1.00;;;;;;5189470;22;20327;-96
2024/04/18 09:30:57;;;;;;;12.90;1.50;;;11.20;1.00;;;;;;5189074;22;20301;-95
2024/04/18 09:33:15;;;;;;;8.23;1.40;;;11.20;1.00;;;;;;5155601;22;20384;-95
2024/04/18 09:35:34;;;;;;;6.50;1.63;;;11.10;1.00;;;;;;5188960;22;20293;-95
2024/04/18 09:37:55;;;;;;;6.20;1.10;;;11.00;1.00;;;;;;5225723;22;20354;-94
2024/04/18 09:40:12;;;;;;;9.83;1.50;;;11.10;1.00;;;;;;5188715;22;20638;-94
2024/04/18 09:42:47;;;;;;;1.45;0.50;;;11.20;1.00;;;;;;5189254;22;20275;-95
2024/04/18 09:45:14;;;;;;;4.57;0.80;;;11.20;1.00;;;;;;5225170;22;20270;-95
2024/04/18 09:47:38;;;;;;;4.83;0.80;;;11.10;1.00;;;;;;5189615;22;20263;-95
2024/04/18 09:49:56;;;;;;;4.37;0.93;;;11.00;1.00;;;;;;5188401;22;20729;-95
2024/04/18 09:52:14;;;;;;;5.88;1.08;;;11.00;1.00;;;;;;5189736;22;20362;-96
2024/04/18 09:54:33;;;;;;;2.00;0.60;;;10.80;1.00;;;;;;5189676;22;20326;-93
2024/04/18 09:56:51;;;;;;;3.23;0.77;;;10.80;1.00;;;;;;5226060;22;20270;-93
2024/04/18 09:59:10;;;;;;;5.22;0.80;;;10.80;1.00;;;;;;5189362;22;20285;-92
2024/04/18 10:01:29;;;;;;;9.13;0.90;;;10.90;1.00;;;;;;5189219;22;20278;-93
2024/04/18 10:03:46;;;;;;;4.07;0.70;;;11.00;1.00;;;;;;5189381;22;20376;-93
2024/04/18 10:06:09;;;;;;;2.43;0.73;;;11.10;1.00;;;;;;5189708;22;20317;-94
2024/04/18 10:08:56;;;;;;;2.73;0.63;;;11.30;1.00;;;;;;5189664;22;20272;-94
2024/04/18 10:11:15;;;;;;;4.47;0.90;;;11.40;1.00;;;;;;5177695;22;20313;-92
2024/04/18 10:13:32;;;;;;;6.63;1.23;;;11.40;1.00;;;;;;5189862;22;20291;-93
2024/04/18 10:15:49;;;;;;;5.50;0.93;;;11.30;1.00;;;;;;5189274;22;20765;-93
2024/04/18 10:18:20;;;;;;;7.53;1.10;;;11.20;1.00;;;;;;5188797;22;20277;-93
2024/04/18 10:20:42;;;;;;;3.38;0.95;;;11.30;1.00;;;;;;5189246;22;20271;-93
2024/04/18 10:23:02;;;;;;;10.37;1.10;;;11.20;1.00;;;;;;5225768;22;20271;-93
2024/04/18 10:25:22;;;;;;;5.30;1.00;;;11.30;1.00;;;;;;5190320;22;20680;-95
2024/04/18 10:27:45;;;;;;;5.63;1.30;;;11.40;1.00;;;;;;5227356;22;20263;-92
2024/04/18 10:30:03;;;;;;;6.07;1.30;;;11.40;1.00;;;;;;5227267;22;20274;-93
2024/04/18 10:32:21;;;;;;;6.03;0.97;;;11.50;1.00;;;;;;5190768;22;20328;-92
2024/04/18 10:34:41;;;;;;;4.07;1.00;;;11.70;1.00;;;;;;5190838;22;20268;-94
2024/04/18 10:37:05;;;;;;;4.73;0.90;;;11.60;1.00;;;;;;5190296;22;20274;-94
2024/04/18 10:39:35;;;;;;;3.35;0.80;;;11.60;1.00;;;;;;5227574;22;20255;-94
2024/04/18 10:41:58;;;;;;;5.18;0.90;;;11.60;1.00;;;;;;5190280;22;20358;-93
2024/04/18 10:44:21;;;;;;;7.20;1.00;;;11.60;1.00;;;;;;5190132;22;20301;-94
2024/04/18 10:46:39;;;;;;;4.63;0.90;;;11.60;1.00;;;;;;5157961;22;20276;-94
2024/04/18 10:48:58;;;;;;;3.83;0.80;;;11.80;1.00;;;;;;5226946;22;20701;-93
2024/04/18 10:51:17;;;;;;;3.03;1.33;;;12.00;1.00;;;;;;5189977;22;20324;-94
2024/04/18 10:53:37;;;;;;;7.75;1.15;;;12.10;1.00;;;;;;5190136;22;20293;-95
2024/04/18 10:55:58;;;;;;;5.38;0.75;;;12.10;1.00;;;;;;5190107;22;20263;-95
2024/04/18 10:58:16;;;;;;;4.47;1.25;;;12.00;1.00;;;;;;5190328;22;20297;-93
2024/04/18 11:00:37;;;;;;;3.63;0.60;;;12.00;1.00;;;;;;5189425;22;20336;-95
2024/04/18 11:02:58;;;;;;;2.70;0.80;;;12.10;1.00;;;;;;5189888;22;20352;-94
2024/04/18 11:05:15;;;;;;;7.38;0.82;;;12.10;1.00;;;;;;5190590;22;20332;-95
2024/04/18 11:07:32;;;;;;;2.97;0.57;;;12.30;1.00;;;;;;5156253;22;20276;-94
2024/04/18 11:09:50;;;;;;;5.35;0.70;;;12.40;1.00;;;;;;5190622;22;20259;-92
2024/04/18 11:12:08;;;;;;;2.85;0.52;;;12.40;1.00;;;;;;5190153;22;20272;-91
2024/04/18 11:14:25;;;;;;;1.45;0.60;;;12.50;1.00;;;;;;5226539;22;20815;-92
2024/04/18 11:16:46;;;;;;;5.50;0.77;;;12.50;1.00;;;;;;5190356;22;20281;-91
2024/04/18 11:19:04;;;;;;;1.17;0.43;;;12.60;1.00;;;;;;5226871;22;20641;-93
2024/04/18 11:21:24;;;;;;;1.10;0.60;;;12.60;1.00;;;;;;5190044;22;20780;-93
2024/04/18 11:23:42;;;;;;;2.60;0.63;;;12.70;1.00;;;;;;5188998;22;20325;-91
2024/04/18 11:26:00;;;;;;;5.07;0.85;;;12.90;1.00;;;;;;5190432;22;20689;-92
2024/04/18 11:28:17;;;;;;;3.42;0.57;;;13.00;1.00;;;;;;5190607;22;20272;-92
2024/04/18 11:30:44;;;;;;;4.13;0.80;;;13.00;1.00;;;;;;5155940;22;20249;-90
2024/04/18 11:33:03;;;;;;;3.50;0.82;;;12.80;1.00;;;;;;5226216;22;20263;-92
2024/04/18 11:35:21;;;;;;;4.75;1.30;;;12.60;1.00;;;;;;5190216;22;20590;-91
2024/04/18 11:37:39;;;;;;;6.47;1.35;;;12.40;1.00;;;;;;5155414;22;20280;-91
2024/04/18 11:39:56;;;;;;;7.05;0.73;;;12.20;1.00;;;;;;5190333;22;20271;-92
2024/04/18 11:42:14;;;;;;;4.72;1.13;;;12.00;1.00;;;;;;5190172;22;20335;-91
2024/04/18 11:44:31;;;;;;;6.43;0.90;;;12.00;1.00;;;;;;5226866;22;20265;-91
2024/04/18 11:46:53;;;;;;;6.47;1.10;;;12.10;1.00;;;;;;5190814;22;20337;-94
2024/04/18 11:49:11;;;;;;;1.77;0.68;;;12.20;1.00;;;;;;5189900;22;20305;-92
2024/04/18 11:51:30;;;;;;;2.80;0.90;;;12.20;1.00;;;;;;5226545;22;20271;-91
2024/04/18 11:53:48;;;;;;;9.63;0.65;;;12.10;1.00;;;;;;5190064;22;20255;-92
2024/04/18 11:56:05;;;;;;;4.80;1.00;;;12.20;1.00;;;;;;5190489;22;20275;-91
2024/04/18 11:58:24;;;;;;;3.97;0.93;;;12.20;1.00;;;;;;5226880;22;20279;-91
2024/04/18 12:00:42;;;;;;;3.67;0.63;;;12.20;1.00;;;;;;5155940;22;20734;-93
2024/04/18 12:03:02;;;;;;;2.10;0.80;;;12.30;1.00;;;;;;5226546;22;20281;-92
2024/04/18 12:05:23;;;;;;;7.90;0.98;;;12.30;1.00;;;;;;5188766;22;20229;-92
2024/04/18 12:07:40;;;;;;;3.95;0.70;;;12.40;1.00;;;;;;5155819;22;20269;-92
2024/04/18 12:09:58;;;;;;;1.73;0.60;;;12.40;1.00;;;;;;5189129;22;20275;-91
2024/04/18 12:12:16;;;;;;;5.70;0.75;;;12.50;1.00;;;;;;5226500;22;20270;-92
2024/04/18 12:14:34;;;;;;;4.20;0.88;;;12.60;1.00;;;;;;5225306;22;20343;-93
2024/04/18 12:16:51;;;;;;;1.60;0.73;;;12.80;1.00;;;;;;5188761;22;20755;-94
2024/04/18 12:19:09;;;;;;;4.78;1.13;;;12.70;1.00;;;;;;5189348;22;20386;-92